sensor_id;sensor_type;location;lat;lon;timestamp;pressure;altitude;pressure_sealevel;temperature;humidity
45872;BME280;32333;55.844;-3.210;2023-03-03T00:01:51;101097.08;;;1.72;100.00
45872;BME280;32333;55.844;-3.210;2023-03-03T00:04:19;101096.93;;;1.88;100.00
45872;BME280;32333;55.844;-3.210;2023-03-03T00:06:48;101102.75;;;1.59;100.00
45872;BME280;32333;55.844;-3.210;2023-03-03T00:09:19;101097.49;;;2.60;100.00
45872;BME280;32333;55.844;-3.210;2023-03-03T00:11:51;101097.67;;;2.06;100.00
45872;BME280;32333;55.844;-3.210;2023-03-03T00:14:35;101100.69;;;2.55;100.00
45872;BME280;32333;55.844;-3.210;2023-03-03T00:17:17;101100.45;;;1.73;100.00
45872;BME280;32333;55.844;-3.210;2023-03-03T00:19:46;101104.34;;;3.21;100.00
45872;BME280;32333;55.844;-3.210;2023-03-03T00:22:27;101103.83;;;2.13;100.00
45872;BME280;32333;55.844;-3.210;2023-03-03T00:24:57;101103.28;;;2.25;100.00
45872;BME280;32333;55.844;-3.210;2023-03-03T00:27:29;101104.40;;;2.74;100.00
45872;BME280;32333;55.844;-3.210;2023-03-03T00:29:58;101108.22;;;1.35;100.00
45872;BME280;32333;55.844;-3.210;2023-03-03T00:32:30;101107.25;;;1.77;100.00
45872;BME280;32333;55.844;-3.210;2023-03-03T00:35:18;101106.93;;;1.65;100.00
45872;BME280;32333;55.844;-3.210;2023-03-03T00:37:49;101112.62;;;1.48;100.00
45872;BME280;32333;55.844;-3.210;2023-03-03T00:40:24;101112.44;;;1.54;100.00
45872;BME280;32333;55.844;-3.210;2023-03-03T00:44:40;101112.84;;;2.10;100.00
45872;BME280;32333;55.844;-3.210;2023-03-03T00:47:24;101113.76;;;1.58;100.00
45872;BME280;32333;55.844;-3.210;2023-03-03T00:49:52;101114.46;;;1.75;100.00
45872;BME280;32333;55.844;-3.210;2023-03-03T00:52:20;101111.36;;;1.84;100.00
45872;BME280;32333;55.844;-3.210;2023-03-03T00:54:47;101110.26;;;1.97;100.00
45872;BME280;32333;55.844;-3.210;2023-03-03T00:57:14;101110.77;;;1.93;100.00
45872;BME280;32333;55.844;-3.210;2023-03-03T00:59:43;101116.63;;;1.83;100.00
45872;BME280;32333;55.844;-3.210;2023-03-03T01:02:10;101111.39;;;2.35;100.00
45872;BME280;32333;55.844;-3.210;2023-03-03T01:04:38;101112.03;;;2.53;100.00
45872;BME280;32333;55.844;-3.210;2023-03-03T01:07:08;101109.77;;;2.00;100.00
45872;BME280;32333;55.844;-3.210;2023-03-03T01:09:35;101110.35;;;2.48;100.00
45872;BME280;32333;55.844;-3.210;2023-03-03T01:14:36;101103.05;;;2.40;100.00
45872;BME280;32333;55.844;-3.210;2023-03-03T01:17:04;101107.94;;;3.34;100.00
45872;BME280;32333;55.844;-3.210;2023-03-03T01:19:31;101110.63;;;2.22;100.00
45872;BME280;32333;55.844;-3.210;2023-03-03T01:22:00;101112.51;;;3.36;100.00
45872;BME280;32333;55.844;-3.210;2023-03-03T01:24:27;101109.66;;;1.75;100.00
45872;BME280;32333;55.844;-3.210;2023-03-03T01:26:55;101109.08;;;2.28;100.00
45872;BME280;32333;55.844;-3.210;2023-03-03T01:29:23;101112.49;;;2.71;100.00
45872;BME280;32333;55.844;-3.210;2023-03-03T01:31:51;101113.39;;;2.30;100.00
45872;BME280;32333;55.844;-3.210;2023-03-03T01:34:18;101114.74;;;2.33;100.00
45872;BME280;32333;55.844;-3.210;2023-03-03T01:36:46;101118.58;;;1.91;100.00
45872;BME280;32333;55.844;-3.210;2023-03-03T01:39:13;101116.17;;;2.81;100.00
45872;BME280;32333;55.844;-3.210;2023-03-03T01:41:41;101116.87;;;2.50;100.00
45872;BME280;32333;55.844;-3.210;2023-03-03T01:44:36;101116.90;;;2.30;100.00
45872;BME280;32333;55.844;-3.210;2023-03-03T01:47:06;101115.88;;;2.66;100.00
45872;BME280;32333;55.844;-3.210;2023-03-03T01:49:39;101113.32;;;2.14;100.00
45872;BME280;32333;55.844;-3.210;2023-03-03T01:52:12;101112.96;;;1.67;100.00
45872;BME280;32333;55.844;-3.210;2023-03-03T01:54:43;101109.31;;;2.38;100.00
45872;BME280;32333;55.844;-3.210;2023-03-03T01:57:14;101113.13;;;2.03;100.00
45872;BME280;32333;55.844;-3.210;2023-03-03T01:59:45;101113.40;;;1.79;100.00
45872;BME280;32333;55.844;-3.210;2023-03-03T02:02:15;101107.66;;;2.43;100.00
45872;BME280;32333;55.844;-3.210;2023-03-03T02:04:44;101107.56;;;2.44;100.00
45872;BME280;32333;55.844;-3.210;2023-03-03T02:07:12;101109.10;;;2.57;100.00
45872;BME280;32333;55.844;-3.210;2023-03-03T02:09:49;101112.96;;;2.25;100.00
45872;BME280;32333;55.844;-3.210;2023-03-03T02:14:36;101109.92;;;3.17;100.00
45872;BME280;32333;55.844;-3.210;2023-03-03T02:17:04;101107.58;;;2.45;100.00
45872;BME280;32333;55.844;-3.210;2023-03-03T02:19:38;101107.97;;;2.81;100.00
45872;BME280;32333;55.844;-3.210;2023-03-03T02:22:07;101108.74;;;2.64;100.00
45872;BME280;32333;55.844;-3.210;2023-03-03T02:24:40;101109.24;;;3.57;100.00
45872;BME280;32333;55.844;-3.210;2023-03-03T02:27:09;101112.41;;;3.26;100.00
45872;BME280;32333;55.844;-3.210;2023-03-03T02:29:37;101110.77;;;2.82;100.00
45872;BME280;32333;55.844;-3.210;2023-03-03T02:32:05;101116.47;;;3.20;100.00
45872;BME280;32333;55.844;-3.210;2023-03-03T02:34:45;101113.59;;;2.98;100.00
45872;BME280;32333;55.844;-3.210;2023-03-03T02:37:13;101114.58;;;3.13;100.00
45872;BME280;32333;55.844;-3.210;2023-03-03T02:39:40;101108.04;;;3.05;100.00
45872;BME280;32333;55.844;-3.210;2023-03-03T02:44:35;101106.76;;;2.86;100.00
45872;BME280;32333;55.844;-3.210;2023-03-03T02:47:03;101102.38;;;3.03;100.00
45872;BME280;32333;55.844;-3.210;2023-03-03T02:49:32;101102.32;;;3.20;100.00
45872;BME280;32333;55.844;-3.210;2023-03-03T02:52:01;101099.37;;;3.85;100.00
45872;BME280;32333;55.844;-3.210;2023-03-03T02:54:29;101100.28;;;2.96;100.00
45872;BME280;32333;55.844;-3.210;2023-03-03T02:56:59;101100.20;;;2.86;100.00
45872;BME280;32333;55.844;-3.210;2023-03-03T02:59:27;101101.29;;;3.38;100.00
45872;BME280;32333;55.844;-3.210;2023-03-03T03:01:55;101102.38;;;3.36;100.00
45872;BME280;32333;55.844;-3.210;2023-03-03T03:04:25;101104.22;;;2.73;100.00
45872;BME280;32333;55.844;-3.210;2023-03-03T03:06:53;101101.40;;;3.94;100.00
45872;BME280;32333;55.844;-3.210;2023-03-03T03:09:22;101102.76;;;2.68;100.00
45872;BME280;32333;55.844;-3.210;2023-03-03T03:11:50;101108.68;;;2.40;100.00
45872;BME280;32333;55.844;-3.210;2023-03-03T03:14:35;101108.19;;;3.09;100.00
45872;BME280;32333;55.844;-3.210;2023-03-03T03:17:03;101107.82;;;2.91;100.00
45872;BME280;32333;55.844;-3.210;2023-03-03T03:19:30;101106.13;;;2.71;100.00
45872;BME280;32333;55.844;-3.210;2023-03-03T03:21:58;101111.59;;;2.72;100.00
45872;BME280;32333;55.844;-3.210;2023-03-03T03:24:26;101113.99;;;3.37;100.00
45872;BME280;32333;55.844;-3.210;2023-03-03T03:26:53;101111.65;;;2.65;100.00
45872;BME280;32333;55.844;-3.210;2023-03-03T03:29:21;101116.33;;;3.45;100.00
45872;BME280;32333;55.844;-3.210;2023-03-03T03:31:48;101118.60;;;1.92;100.00
45872;BME280;32333;55.844;-3.210;2023-03-03T03:34:16;101118.96;;;1.99;100.00
45872;BME280;32333;55.844;-3.210;2023-03-03T03:36:43;101124.12;;;2.54;100.00
45872;BME280;32333;55.844;-3.210;2023-03-03T03:39:12;101119.29;;;4.67;100.00
45872;BME280;32333;55.844;-3.210;2023-03-03T03:41:39;101119.85;;;3.80;100.00
45872;BME280;32333;55.844;-3.210;2023-03-03T03:44:36;101118.39;;;4.18;100.00
45872;BME280;32333;55.844;-3.210;2023-03-03T03:47:03;101122.70;;;3.21;100.00
45872;BME280;32333;55.844;-3.210;2023-03-03T03:49:30;101118.75;;;3.07;100.00
45872;BME280;32333;55.844;-3.210;2023-03-03T03:51:59;101120.21;;;3.44;100.00
45872;BME280;32333;55.844;-3.210;2023-03-03T03:54:26;101120.35;;;3.78;100.00
45872;BME280;32333;55.844;-3.210;2023-03-03T03:56:54;101120.60;;;3.96;100.00
45872;BME280;32333;55.844;-3.210;2023-03-03T03:59:21;101119.30;;;3.47;100.00
45872;BME280;32333;55.844;-3.210;2023-03-03T04:01:49;101118.80;;;3.31;100.00
45872;BME280;32333;55.844;-3.210;2023-03-03T04:04:16;101120.13;;;3.27;100.00
45872;BME280;32333;55.844;-3.210;2023-03-03T04:06:44;101118.02;;;2.02;100.00
45872;BME280;32333;55.844;-3.210;2023-03-03T04:09:12;101121.27;;;2.62;100.00
45872;BME280;32333;55.844;-3.210;2023-03-03T04:11:40;101119.49;;;3.63;100.00
45872;BME280;32333;55.844;-3.210;2023-03-03T04:14:35;101118.97;;;3.36;100.00
45872;BME280;32333;55.844;-3.210;2023-03-03T04:17:03;101115.51;;;3.11;100.00
45872;BME280;32333;55.844;-3.210;2023-03-03T04:19:30;101115.19;;;2.71;100.00
45872;BME280;32333;55.844;-3.210;2023-03-03T04:21:58;101114.51;;;2.98;100.00
45872;BME280;32333;55.844;-3.210;2023-03-03T04:24:26;101111.49;;;2.63;100.00
45872;BME280;32333;55.844;-3.210;2023-03-03T04:26:53;101107.01;;;2.96;100.00
45872;BME280;32333;55.844;-3.210;2023-03-03T04:29:21;101103.98;;;2.13;100.00
45872;BME280;32333;55.844;-3.210;2023-03-03T04:31:48;101105.28;;;2.31;100.00
45872;BME280;32333;55.844;-3.210;2023-03-03T04:34:16;101107.03;;;2.81;100.00
45872;BME280;32333;55.844;-3.210;2023-03-03T04:36:43;101112.26;;;2.42;100.00
45872;BME280;32333;55.844;-3.210;2023-03-03T04:39:12;101115.27;;;3.05;100.00
45872;BME280;32333;55.844;-3.210;2023-03-03T04:41:40;101111.67;;;2.18;100.00
45872;BME280;32333;55.844;-3.210;2023-03-03T04:44:36;101113.58;;;2.86;100.00
45872;BME280;32333;55.844;-3.210;2023-03-03T04:47:03;101111.37;;;3.06;100.00
45872;BME280;32333;55.844;-3.210;2023-03-03T04:49:31;101108.92;;;3.48;100.00
45872;BME280;32333;55.844;-3.210;2023-03-03T04:51:59;101108.78;;;3.10;100.00
45872;BME280;32333;55.844;-3.210;2023-03-03T04:54:27;101105.13;;;2.35;100.00
45872;BME280;32333;55.844;-3.210;2023-03-03T04:56:54;101108.16;;;2.12;100.00
45872;BME280;32333;55.844;-3.210;2023-03-03T04:59:22;101109.79;;;3.01;100.00
45872;BME280;32333;55.844;-3.210;2023-03-03T05:01:49;101107.04;;;3.03;100.00
45872;BME280;32333;55.844;-3.210;2023-03-03T05:04:17;101106.86;;;1.98;100.00
45872;BME280;32333;55.844;-3.210;2023-03-03T05:06:44;101108.95;;;2.95;100.00
45872;BME280;32333;55.844;-3.210;2023-03-03T05:09:13;101106.02;;;2.95;100.00
45872;BME280;32333;55.844;-3.210;2023-03-03T05:11:40;101106.68;;;3.74;100.00
45872;BME280;32333;55.844;-3.210;2023-03-03T05:14:36;101104.95;;;3.52;100.00
45872;BME280;32333;55.844;-3.210;2023-03-03T05:17:03;101104.56;;;3.76;100.00
45872;BME280;32333;55.844;-3.210;2023-03-03T05:19:31;101108.99;;;2.88;100.00
45872;BME280;32333;55.844;-3.210;2023-03-03T05:21:59;101108.75;;;2.56;100.00
45872;BME280;32333;55.844;-3.210;2023-03-03T05:24:28;101110.68;;;3.69;100.00
45872;BME280;32333;55.844;-3.210;2023-03-03T05:26:55;101110.55;;;3.58;100.00
45872;BME280;32333;55.844;-3.210;2023-03-03T05:29:23;101115.35;;;2.58;100.00
45872;BME280;32333;55.844;-3.210;2023-03-03T05:31:51;101111.25;;;3.04;100.00
45872;BME280;32333;55.844;-3.210;2023-03-03T05:34:18;101113.50;;;3.10;100.00
45872;BME280;32333;55.844;-3.210;2023-03-03T05:36:46;101109.04;;;2.47;100.00
45872;BME280;32333;55.844;-3.210;2023-03-03T05:39:13;101112.95;;;3.08;100.00
45872;BME280;32333;55.844;-3.210;2023-03-03T05:41:41;101115.09;;;2.77;100.00
45872;BME280;32333;55.844;-3.210;2023-03-03T05:44:35;101114.35;;;3.07;100.00
45872;BME280;32333;55.844;-3.210;2023-03-03T05:47:03;101112.22;;;2.56;100.00
45872;BME280;32333;55.844;-3.210;2023-03-03T05:49:31;101110.76;;;2.52;100.00
45872;BME280;32333;55.844;-3.210;2023-03-03T05:51:59;101115.84;;;2.81;100.00
45872;BME280;32333;55.844;-3.210;2023-03-03T05:54:26;101113.71;;;2.20;100.00
45872;BME280;32333;55.844;-3.210;2023-03-03T05:56:54;101114.64;;;3.02;100.00
45872;BME280;32333;55.844;-3.210;2023-03-03T05:59:21;101117.92;;;1.28;100.00
45872;BME280;32333;55.844;-3.210;2023-03-03T06:01:49;101121.46;;;1.85;100.00
45872;BME280;32333;55.844;-3.210;2023-03-03T06:04:17;101115.67;;;1.73;100.00
45872;BME280;32333;55.844;-3.210;2023-03-03T06:06:45;101118.02;;;2.28;100.00
45872;BME280;32333;55.844;-3.210;2023-03-03T06:09:13;101123.24;;;1.39;100.00
45872;BME280;32333;55.844;-3.210;2023-03-03T06:11:41;101118.03;;;2.11;100.00
45872;BME280;32333;55.844;-3.210;2023-03-03T06:14:35;101118.97;;;2.17;100.00
45872;BME280;32333;55.844;-3.210;2023-03-03T06:17:03;101118.96;;;2.36;100.00
45872;BME280;32333;55.844;-3.210;2023-03-03T06:19:30;101123.00;;;1.70;100.00
45872;BME280;32333;55.844;-3.210;2023-03-03T06:21:59;101124.45;;;2.66;100.00
45872;BME280;32333;55.844;-3.210;2023-03-03T06:24:27;101127.44;;;2.16;100.00
45872;BME280;32333;55.844;-3.210;2023-03-03T06:26:55;101127.98;;;2.80;100.00
45872;BME280;32333;55.844;-3.210;2023-03-03T06:29:23;101133.44;;;1.34;100.00
45872;BME280;32333;55.844;-3.210;2023-03-03T06:31:51;101129.86;;;2.25;100.00
45872;BME280;32333;55.844;-3.210;2023-03-03T06:34:18;101131.15;;;3.05;100.00
45872;BME280;32333;55.844;-3.210;2023-03-03T06:36:46;101126.39;;;2.67;100.00
45872;BME280;32333;55.844;-3.210;2023-03-03T06:39:14;101129.39;;;2.26;100.00
45872;BME280;32333;55.844;-3.210;2023-03-03T06:41:41;101131.55;;;3.15;100.00
45872;BME280;32333;55.844;-3.210;2023-03-03T06:44:35;101132.50;;;3.13;100.00
45872;BME280;32333;55.844;-3.210;2023-03-03T06:47:03;101133.79;;;2.96;100.00
45872;BME280;32333;55.844;-3.210;2023-03-03T06:49:30;101135.04;;;2.98;100.00
45872;BME280;32333;55.844;-3.210;2023-03-03T06:52:00;101136.60;;;2.77;100.00
45872;BME280;32333;55.844;-3.210;2023-03-03T06:54:31;101133.86;;;2.41;100.00
45872;BME280;32333;55.844;-3.210;2023-03-03T06:57:06;101134.67;;;2.66;100.00
45872;BME280;32333;55.844;-3.210;2023-03-03T06:59:40;101139.75;;;2.14;100.00
45872;BME280;32333;55.844;-3.210;2023-03-03T07:02:14;101144.38;;;2.28;100.00
45872;BME280;32333;55.844;-3.210;2023-03-03T07:04:43;101141.62;;;2.47;100.00
45872;BME280;32333;55.844;-3.210;2023-03-03T07:07:16;101142.10;;;2.14;100.00
45872;BME280;32333;55.844;-3.210;2023-03-03T07:09:46;101142.31;;;2.78;100.00
45872;BME280;32333;55.844;-3.210;2023-03-03T07:14:40;101151.57;;;2.03;100.00
45872;BME280;32333;55.844;-3.210;2023-03-03T07:17:12;101151.86;;;2.88;100.00
45872;BME280;32333;55.844;-3.210;2023-03-03T07:19:42;101154.63;;;2.77;100.00
45872;BME280;32333;55.844;-3.210;2023-03-03T07:22:14;101155.63;;;1.89;100.00
45872;BME280;32333;55.844;-3.210;2023-03-03T07:24:44;101157.87;;;2.27;100.00
45872;BME280;32333;55.844;-3.210;2023-03-03T07:27:18;101161.31;;;1.89;100.00
45872;BME280;32333;55.844;-3.210;2023-03-03T07:29:47;101168.13;;;2.01;100.00
45872;BME280;32333;55.844;-3.210;2023-03-03T07:32:24;101166.48;;;2.20;100.00
45872;BME280;32333;55.844;-3.210;2023-03-03T07:34:54;101164.98;;;3.00;100.00
45872;BME280;32333;55.844;-3.210;2023-03-03T07:37:29;101165.94;;;2.84;100.00
45872;BME280;32333;55.844;-3.210;2023-03-03T07:39:59;101170.04;;;3.27;100.00
45872;BME280;32333;55.844;-3.210;2023-03-03T07:44:37;101171.42;;;1.96;100.00
45872;BME280;32333;55.844;-3.210;2023-03-03T07:47:17;101169.90;;;2.96;100.00
45872;BME280;32333;55.844;-3.210;2023-03-03T07:49:46;101171.73;;;2.87;100.00
45872;BME280;32333;55.844;-3.210;2023-03-03T07:52:24;101175.26;;;2.28;100.00
45872;BME280;32333;55.844;-3.210;2023-03-03T07:54:55;101176.19;;;2.03;100.00
45872;BME280;32333;55.844;-3.210;2023-03-03T07:57:26;101175.45;;;2.47;100.00
45872;BME280;32333;55.844;-3.210;2023-03-03T07:59:59;101175.85;;;3.21;100.00
45872;BME280;32333;55.844;-3.210;2023-03-03T08:02:46;101184.54;;;3.77;100.00
45872;BME280;32333;55.844;-3.210;2023-03-03T08:05:26;101182.91;;;2.33;100.00
45872;BME280;32333;55.844;-3.210;2023-03-03T08:07:56;101182.44;;;2.95;100.00
45872;BME280;32333;55.844;-3.210;2023-03-03T08:10:34;101187.00;;;2.85;100.00
45872;BME280;32333;55.844;-3.210;2023-03-03T08:14:37;101188.15;;;1.68;100.00
45872;BME280;32333;55.844;-3.210;2023-03-03T08:17:13;101195.08;;;1.60;100.00
45872;BME280;32333;55.844;-3.210;2023-03-03T08:19:44;101195.10;;;2.73;100.00
45872;BME280;32333;55.844;-3.210;2023-03-03T08:22:15;101194.60;;;2.78;100.00
45872;BME280;32333;55.844;-3.210;2023-03-03T08:24:44;101201.50;;;2.44;100.00
45872;BME280;32333;55.844;-3.210;2023-03-03T08:27:12;101203.61;;;2.26;100.00
45872;BME280;32333;55.844;-3.210;2023-03-03T08:29:39;101206.66;;;2.43;100.00
45872;BME280;32333;55.844;-3.210;2023-03-03T08:32:08;101205.76;;;2.78;100.00
45872;BME280;32333;55.844;-3.210;2023-03-03T08:34:35;101213.99;;;1.97;100.00
45872;BME280;32333;55.844;-3.210;2023-03-03T08:37:03;101215.28;;;2.80;100.00
45872;BME280;32333;55.844;-3.210;2023-03-03T08:39:30;101217.89;;;2.17;100.00
45872;BME280;32333;55.844;-3.210;2023-03-03T08:41:58;101218.67;;;1.55;100.00
45872;BME280;32333;55.844;-3.210;2023-03-03T08:44:35;101216.99;;;2.82;100.00
45872;BME280;32333;55.844;-3.210;2023-03-03T08:47:03;101216.64;;;3.65;100.00
45872;BME280;32333;55.844;-3.210;2023-03-03T08:49:30;101220.19;;;3.12;100.00
45872;BME280;32333;55.844;-3.210;2023-03-03T08:51:59;101222.79;;;2.96;100.00
45872;BME280;32333;55.844;-3.210;2023-03-03T08:54:27;101224.51;;;2.38;100.00
45872;BME280;32333;55.844;-3.210;2023-03-03T08:56:54;101222.69;;;2.50;100.00
45872;BME280;32333;55.844;-3.210;2023-03-03T08:59:23;101227.10;;;2.07;100.00
45872;BME280;32333;55.844;-3.210;2023-03-03T09:01:50;101229.75;;;2.98;100.00
45872;BME280;32333;55.844;-3.210;2023-03-03T09:04:18;101230.99;;;2.50;100.00
45872;BME280;32333;55.844;-3.210;2023-03-03T09:06:45;101229.33;;;2.03;100.00
45872;BME280;32333;55.844;-3.210;2023-03-03T09:09:13;101229.70;;;2.66;100.00
45872;BME280;32333;55.844;-3.210;2023-03-03T09:11:40;101232.36;;;2.58;100.00
45872;BME280;32333;55.844;-3.210;2023-03-03T09:14:36;101231.18;;;3.60;100.00
45872;BME280;32333;55.844;-3.210;2023-03-03T09:17:21;101236.81;;;2.93;100.00
45872;BME280;32333;55.844;-3.210;2023-03-03T09:19:49;101238.90;;;3.63;100.00
45872;BME280;32333;55.844;-3.210;2023-03-03T09:22:19;101241.25;;;2.71;100.00
45872;BME280;32333;55.844;-3.210;2023-03-03T09:24:49;101238.55;;;2.72;100.00
45872;BME280;32333;55.844;-3.210;2023-03-03T09:27:24;101239.53;;;2.61;100.00
45872;BME280;32333;55.844;-3.210;2023-03-03T09:29:53;101243.14;;;2.45;100.00
45872;BME280;32333;55.844;-3.210;2023-03-03T09:32:30;101243.97;;;2.25;100.00
45872;BME280;32333;55.844;-3.210;2023-03-03T09:35:24;101246.92;;;2.79;100.00
45872;BME280;32333;55.844;-3.210;2023-03-03T09:37:53;101247.77;;;3.02;100.00
45872;BME280;32333;55.844;-3.210;2023-03-03T09:40:36;101247.68;;;1.68;100.00
45872;BME280;32333;55.844;-3.210;2023-03-03T09:44:53;101252.79;;;2.19;100.00
45872;BME280;32333;55.844;-3.210;2023-03-03T09:47:34;101246.59;;;2.32;100.00
45872;BME280;32333;55.844;-3.210;2023-03-03T09:50:12;101250.76;;;3.03;100.00
45872;BME280;32333;55.844;-3.210;2023-03-03T09:52:48;101248.48;;;2.93;100.00
45872;BME280;32333;55.844;-3.210;2023-03-03T09:55:29;101249.47;;;2.13;100.00
45872;BME280;32333;55.844;-3.210;2023-03-03T09:58:13;101248.10;;;2.13;100.00
45872;BME280;32333;55.844;-3.210;2023-03-03T10:00:52;101245.73;;;3.36;100.00
45872;BME280;32333;55.844;-3.210;2023-03-03T10:04:18;101247.76;;;3.46;100.00
45872;BME280;32333;55.844;-3.210;2023-03-03T10:06:55;101243.56;;;3.25;100.00
45872;BME280;32333;55.844;-3.210;2023-03-03T10:09:40;101243.23;;;3.61;100.00
45872;BME280;32333;55.844;-3.210;2023-03-03T10:14:47;101243.84;;;3.86;100.00
45872;BME280;32333;55.844;-3.210;2023-03-03T10:17:26;101240.54;;;3.04;100.00
45872;BME280;32333;55.844;-3.210;2023-03-03T10:20:11;101240.60;;;3.46;100.00
45872;BME280;32333;55.844;-3.210;2023-03-03T10:22:49;101243.86;;;3.29;100.00
45872;BME280;32333;55.844;-3.210;2023-03-03T10:25:28;101243.09;;;3.64;100.00
45872;BME280;32333;55.844;-3.210;2023-03-03T10:28:17;101250.29;;;2.87;100.00
45872;BME280;32333;55.844;-3.210;2023-03-03T10:30:54;101246.55;;;3.28;100.00
45872;BME280;32333;55.844;-3.210;2023-03-03T10:33:28;101246.80;;;3.28;100.00
45872;BME280;32333;55.844;-3.210;2023-03-03T10:36:16;101244.15;;;3.30;100.00
45872;BME280;32333;55.844;-3.210;2023-03-03T10:38:54;101248.20;;;3.53;100.00
45872;BME280;32333;55.844;-3.210;2023-03-03T10:41:37;101255.30;;;2.88;100.00
45872;BME280;32333;55.844;-3.210;2023-03-03T10:44:45;101256.15;;;3.73;100.00
45872;BME280;32333;55.844;-3.210;2023-03-03T10:47:44;101257.25;;;4.10;100.00
45872;BME280;32333;55.844;-3.210;2023-03-03T10:50:21;101254.23;;;3.57;100.00
45872;BME280;32333;55.844;-3.210;2023-03-03T10:52:51;101252.05;;;3.50;100.00
45872;BME280;32333;55.844;-3.210;2023-03-03T10:55:35;101256.64;;;3.85;100.00
45872;BME280;32333;55.844;-3.210;2023-03-03T10:58:33;101254.68;;;2.70;100.00
45872;BME280;32333;55.844;-3.210;2023-03-03T11:01:09;101257.38;;;2.75;100.00
45872;BME280;32333;55.844;-3.210;2023-03-03T11:03:48;101261.07;;;3.16;100.00
45872;BME280;32333;55.844;-3.210;2023-03-03T11:06:25;101263.39;;;3.29;100.00
45872;BME280;32333;55.844;-3.210;2023-03-03T11:08:56;101269.58;;;3.13;100.00
45872;BME280;32333;55.844;-3.210;2023-03-03T11:11:34;101269.70;;;3.22;100.00
45872;BME280;32333;55.844;-3.210;2023-03-03T11:14:41;101268.30;;;3.22;100.00
45872;BME280;32333;55.844;-3.210;2023-03-03T11:17:15;101274.63;;;3.61;100.00
45872;BME280;32333;55.844;-3.210;2023-03-03T11:19:56;101278.72;;;2.07;100.00
45872;BME280;32333;55.844;-3.210;2023-03-03T11:22:34;101275.86;;;3.23;100.00
45872;BME280;32333;55.844;-3.210;2023-03-03T11:25:15;101275.06;;;3.05;100.00
45872;BME280;32333;55.844;-3.210;2023-03-03T11:28:01;101278.56;;;2.02;100.00
45872;BME280;32333;55.844;-3.210;2023-03-03T11:30:40;101273.11;;;3.61;100.00
45872;BME280;32333;55.844;-3.210;2023-03-03T11:33:19;101278.65;;;3.21;100.00
45872;BME280;32333;55.844;-3.210;2023-03-03T11:35:54;101281.31;;;3.46;100.00
45872;BME280;32333;55.844;-3.210;2023-03-03T11:38:36;101282.74;;;2.23;100.00
45872;BME280;32333;55.844;-3.210;2023-03-03T11:41:18;101281.70;;;3.78;100.00
45872;BME280;32333;55.844;-3.210;2023-03-03T11:44:38;101285.01;;;3.07;100.00
45872;BME280;32333;55.844;-3.210;2023-03-03T11:47:15;101280.25;;;2.19;100.00
45872;BME280;32333;55.844;-3.210;2023-03-03T11:49:49;101282.53;;;4.00;100.00
45872;BME280;32333;55.844;-3.210;2023-03-03T11:52:25;101284.43;;;4.19;100.00
45872;BME280;32333;55.844;-3.210;2023-03-03T11:55:01;101282.32;;;3.57;100.00
45872;BME280;32333;55.844;-3.210;2023-03-03T11:57:34;101282.12;;;3.07;100.00
45872;BME280;32333;55.844;-3.210;2023-03-03T12:00:15;101284.03;;;2.73;100.00
45872;BME280;32333;55.844;-3.210;2023-03-03T12:02:55;101277.70;;;3.21;100.00
45872;BME280;32333;55.844;-3.210;2023-03-03T12:05:36;101276.12;;;3.62;100.00
45872;BME280;32333;55.844;-3.210;2023-03-03T12:08:13;101277.93;;;3.23;100.00
45872;BME280;32333;55.844;-3.210;2023-03-03T12:10:48;101275.43;;;3.94;100.00
45872;BME280;32333;55.844;-3.210;2023-03-03T12:14:52;101276.78;;;4.16;100.00
45872;BME280;32333;55.844;-3.210;2023-03-03T12:17:34;101277.98;;;4.01;100.00
45872;BME280;32333;55.844;-3.210;2023-03-03T12:20:11;101275.10;;;3.09;100.00
45872;BME280;32333;55.844;-3.210;2023-03-03T12:22:52;101268.05;;;3.32;100.00
45872;BME280;32333;55.844;-3.210;2023-03-03T12:25:32;101268.40;;;2.94;100.00
45872;BME280;32333;55.844;-3.210;2023-03-03T12:28:06;101269.56;;;2.79;100.00
45872;BME280;32333;55.844;-3.210;2023-03-03T12:30:46;101262.47;;;3.64;100.00
45872;BME280;32333;55.844;-3.210;2023-03-03T12:33:25;101267.29;;;4.65;100.00
45872;BME280;32333;55.844;-3.210;2023-03-03T12:36:06;101262.57;;;3.47;100.00
45872;BME280;32333;55.844;-3.210;2023-03-03T12:38:39;101263.00;;;2.99;100.00
45872;BME280;32333;55.844;-3.210;2023-03-03T12:41:16;101262.09;;;2.93;100.00
45872;BME280;32333;55.844;-3.210;2023-03-03T12:44:42;101253.82;;;3.77;100.00
45872;BME280;32333;55.844;-3.210;2023-03-03T12:47:15;101251.41;;;2.21;100.00
45872;BME280;32333;55.844;-3.210;2023-03-03T12:49:54;101249.85;;;2.80;100.00
45872;BME280;32333;55.844;-3.210;2023-03-03T12:52:29;101252.72;;;3.87;100.00
45872;BME280;32333;55.844;-3.210;2023-03-03T12:55:07;101250.25;;;4.46;100.00
45872;BME280;32333;55.844;-3.210;2023-03-03T12:57:44;101251.26;;;4.75;100.00
45872;BME280;32333;55.844;-3.210;2023-03-03T13:00:24;101246.05;;;2.90;100.00
45872;BME280;32333;55.844;-3.210;2023-03-03T13:03:00;101246.86;;;2.68;100.00
45872;BME280;32333;55.844;-3.210;2023-03-03T13:05:38;101244.96;;;3.34;100.00
45872;BME280;32333;55.844;-3.210;2023-03-03T13:08:22;101245.86;;;3.91;100.00
45872;BME280;32333;55.844;-3.210;2023-03-03T13:10:56;101243.35;;;2.90;100.00
45872;BME280;32333;55.844;-3.210;2023-03-03T13:14:42;101242.82;;;4.22;100.00
45872;BME280;32333;55.844;-3.210;2023-03-03T13:17:18;101242.84;;;4.54;100.00
45872;BME280;32333;55.844;-3.210;2023-03-03T13:19:51;101238.05;;;2.72;100.00
45872;BME280;32333;55.844;-3.210;2023-03-03T13:22:35;101241.36;;;3.67;100.00
45872;BME280;32333;55.844;-3.210;2023-03-03T13:25:15;101241.32;;;3.68;100.00
45872;BME280;32333;55.844;-3.210;2023-03-03T13:27:49;101235.85;;;4.82;100.00
45872;BME280;32333;55.844;-3.210;2023-03-03T13:30:22;101235.74;;;3.82;100.00
45872;BME280;32333;55.844;-3.210;2023-03-03T13:32:56;101229.16;;;5.12;100.00
45872;BME280;32333;55.844;-3.210;2023-03-03T13:35:32;101235.73;;;2.88;100.00